createdAt,value
2019-06-01T00:02:07.456Z,16.17
2019-06-01T00:04:36.867Z,16.22
2019-06-01T00:07:06.340Z,16.23
2019-06-01T00:09:35.796Z,16.19
2019-06-01T00:12:05.210Z,16.19
2019-06-01T00:14:34.636Z,16.20
2019-06-01T00:17:04.059Z,16.22
2019-06-01T00:19:33.498Z,16.20
2019-06-01T00:22:02.939Z,16.21
2019-06-01T00:24:32.365Z,16.13
2019-06-01T00:27:01.860Z,16.16
2019-06-01T00:29:31.300Z,16.18
2019-06-01T00:32:00.735Z,16.17
2019-06-01T00:34:30.182Z,16.19
2019-06-01T00:36:59.678Z,16.21
2019-06-01T00:39:29.107Z,16.20
2019-06-01T00:41:58.538Z,16.22
2019-06-01T00:44:27.991Z,16.21
2019-06-01T00:46:57.422Z,16.22
2019-06-01T00:49:26.877Z,16.23
2019-06-01T00:51:56.301Z,16.20
2019-06-01T00:54:25.783Z,16.16
2019-06-01T00:56:55.230Z,16.17
2019-06-01T00:59:24.682Z,16.15
2019-06-01T01:01:54.285Z,16.15
2019-06-01T01:04:23.741Z,16.22
2019-06-01T01:06:53.269Z,16.24
2019-06-01T01:09:22.841Z,16.25
2019-06-01T01:11:53.306Z,16.21
2019-06-01T01:14:22.983Z,16.19
2019-06-01T01:16:54.035Z,16.19
2019-06-01T01:19:23.805Z,16.15
2019-06-01T01:21:54.116Z,16.11
2019-06-01T01:24:23.576Z,16.14
2019-06-01T01:26:53.109Z,16.17
2019-06-01T01:29:22.604Z,16.15
2019-06-01T01:31:53.163Z,16.11
2019-06-01T01:34:22.817Z,16.11
2019-06-01T01:36:53.073Z,16.15
2019-06-01T01:39:23.762Z,16.18
2019-06-01T01:41:54.239Z,16.21
2019-06-01T01:44:23.896Z,16.23
2019-06-01T01:46:53.476Z,16.22
2019-06-01T01:49:22.949Z,16.26
2019-06-01T01:51:52.825Z,16.23
2019-06-01T01:54:22.574Z,16.26
2019-06-01T01:56:52.131Z,16.20
2019-06-01T01:59:21.624Z,16.19
2019-06-01T02:01:51.059Z,16.19
2019-06-01T02:04:20.498Z,16.18
2019-06-01T02:06:49.896Z,16.17
2019-06-01T02:09:19.335Z,16.19
2019-06-01T02:11:48.773Z,16.18
2019-06-01T02:14:18.310Z,16.16
2019-06-01T02:16:47.731Z,16.13
2019-06-01T02:19:17.172Z,16.15
2019-06-01T02:21:46.609Z,16.16
2019-06-01T02:24:16.092Z,16.19
2019-06-01T02:26:45.589Z,16.18
2019-06-01T02:29:15.009Z,16.18
2019-06-01T02:31:44.435Z,16.15
2019-06-01T02:34:13.865Z,16.09
2019-06-01T02:36:43.316Z,16.08
2019-06-01T02:39:13.919Z,16.10
2019-06-01T02:41:43.346Z,16.15
2019-06-01T02:44:12.792Z,16.13
2019-06-01T02:46:42.231Z,16.18
2019-06-01T02:49:11.667Z,16.22
2019-06-01T02:51:41.076Z,16.26
2019-06-01T02:54:10.523Z,16.23
2019-06-01T02:56:39.932Z,16.23
2019-06-01T02:59:09.371Z,16.26
2019-06-01T03:01:38.814Z,16.27
2019-06-01T03:04:09.485Z,16.28
2019-06-01T03:06:40.934Z,16.30
2019-06-01T03:09:10.343Z,16.36
2019-06-01T03:11:40.202Z,16.41
2019-06-01T03:14:10.361Z,16.44
2019-06-01T03:16:40.468Z,16.46
2019-06-01T03:19:10.318Z,16.48
2019-06-01T03:21:39.821Z,16.49
2019-06-01T03:24:10.618Z,16.52
2019-06-01T03:26:44.155Z,16.53
2019-06-01T03:29:20.482Z,16.54
2019-06-01T03:31:50.056Z,16.56
2019-06-01T03:34:19.480Z,16.59
2019-06-01T03:36:48.911Z,16.62
2019-06-01T03:39:18.450Z,16.67
2019-06-01T03:41:47.881Z,16.70
2019-06-01T03:44:17.337Z,16.72
2019-06-01T03:46:46.856Z,16.77
2019-06-01T03:49:16.404Z,16.78
2019-06-01T03:51:45.970Z,16.84
2019-06-01T03:54:15.519Z,16.88
2019-06-01T03:56:44.945Z,16.98
2019-06-01T03:59:14.516Z,17.08
2019-06-01T04:01:47.059Z,17.19
2019-06-01T04:04:15.141Z,17.26
2019-06-01T04:06:44.633Z,17.34
2019-06-01T04:09:14.148Z,17.40
2019-06-01T04:11:43.617Z,17.51
2019-06-01T04:14:13.358Z,17.65
2019-06-01T04:16:43.592Z,17.84
2019-06-01T04:19:13.058Z,18.03
2019-06-01T04:21:42.633Z,18.08
2019-06-01T04:24:12.389Z,18.17
2019-06-01T04:26:41.984Z,18.29
2019-06-01T04:29:12.589Z,18.29
2019-06-01T04:31:42.256Z,18.24
2019-06-01T04:34:11.697Z,18.33
2019-06-01T04:36:41.173Z,18.31
2019-06-01T04:39:11.680Z,18.36
2019-06-01T04:41:41.188Z,18.38
2019-06-01T04:44:11.943Z,18.41
2019-06-01T04:46:41.735Z,18.47
2019-06-01T04:49:11.222Z,18.56
2019-06-01T04:51:40.787Z,18.67
2019-06-01T04:54:11.539Z,18.81
2019-06-01T04:56:41.281Z,19.03
2019-06-01T04:59:10.970Z,19.20
2019-06-01T05:01:40.428Z,19.26
2019-06-01T05:04:11.088Z,19.26
2019-06-01T05:06:40.576Z,19.25
2019-06-01T05:09:11.276Z,19.32
2019-06-01T05:11:40.794Z,19.49
2019-06-01T05:14:10.214Z,19.71
2019-06-01T05:16:39.677Z,20.05
2019-06-01T05:19:10.137Z,20.24
2019-06-01T05:21:39.631Z,20.18
2019-06-01T05:24:09.069Z,20.25
2019-06-01T05:26:38.486Z,20.36
2019-06-01T05:29:09.286Z,20.37
2019-06-01T05:31:38.921Z,20.50
2019-06-01T05:34:09.625Z,20.65
2019-06-01T05:36:39.322Z,20.85
2019-06-01T05:39:10.306Z,20.96
2019-06-01T05:41:39.834Z,20.76
2019-06-01T05:44:09.253Z,20.66
2019-06-01T05:46:38.811Z,20.57
2019-06-01T05:49:08.218Z,20.50
2019-06-01T05:51:37.657Z,20.39
2019-06-01T05:54:07.096Z,20.26
2019-06-01T05:56:36.535Z,20.24
2019-06-01T05:59:06.021Z,20.08
2019-06-01T06:01:35.472Z,19.93
2019-06-01T06:04:04.975Z,20.04
2019-06-01T06:06:34.515Z,20.24
2019-06-01T06:09:05.371Z,20.44
2019-06-01T06:11:34.996Z,20.77
2019-06-01T06:14:04.424Z,21.02
2019-06-01T06:16:34.042Z,21.45
2019-06-01T06:19:03.612Z,21.91
2019-06-01T06:21:33.111Z,22.33
2019-06-01T06:24:02.556Z,22.64
2019-06-01T06:26:32.030Z,22.94
2019-06-01T06:29:01.499Z,23.22
2019-06-01T06:31:30.934Z,23.58
2019-06-01T06:34:00.408Z,23.93
2019-06-01T06:36:29.847Z,24.04
2019-06-01T06:38:59.352Z,23.88
2019-06-01T06:41:28.792Z,24.23
2019-06-01T06:43:58.219Z,24.73
2019-06-01T06:46:27.684Z,24.96
2019-06-01T06:48:57.117Z,25.34
2019-06-01T06:51:26.732Z,25.31
2019-06-01T06:53:56.172Z,25.81
2019-06-01T06:56:26.201Z,26.34
2019-06-01T06:58:55.683Z,26.17
2019-06-01T07:01:25.121Z,26.10
2019-06-01T07:03:54.702Z,25.99
2019-06-01T07:06:24.201Z,26.71
2019-06-01T07:08:53.879Z,27.02
2019-06-01T07:11:23.515Z,26.79
2019-06-01T07:13:52.985Z,27.72
2019-06-01T07:16:23.443Z,28.81
2019-06-01T07:18:53.073Z,28.08
2019-06-01T07:21:23.823Z,26.99
2019-06-01T07:23:53.269Z,26.11
2019-06-01T07:26:23.996Z,25.83
2019-06-01T07:28:53.559Z,25.63
2019-06-01T07:31:24.162Z,25.36
2019-06-01T07:33:53.751Z,24.90
2019-06-01T07:36:24.461Z,24.45
2019-06-01T07:38:53.932Z,24.04
2019-06-01T07:41:24.657Z,23.97
2019-06-01T07:43:54.199Z,23.80
2019-06-01T07:46:24.901Z,23.70
2019-06-01T07:48:54.405Z,23.59
2019-06-01T07:51:25.124Z,23.48
2019-06-01T07:53:54.826Z,23.27
2019-06-01T07:56:24.403Z,23.19
2019-06-01T07:58:54.053Z,23.18
2019-06-01T08:01:25.138Z,23.31
2019-06-01T08:03:54.801Z,23.52
2019-06-01T08:06:26.068Z,23.77
2019-06-01T08:08:55.573Z,24.10
2019-06-01T08:11:29.369Z,24.42
2019-06-01T08:13:56.484Z,24.96
2019-06-01T08:16:25.992Z,25.46
2019-06-01T08:18:55.378Z,26.17
2019-06-01T08:21:25.954Z,26.57
2019-06-01T08:23:55.487Z,27.40
2019-06-01T08:26:26.380Z,27.48
2019-06-01T08:28:56.144Z,27.39
2019-06-01T08:31:26.613Z,26.96
2019-06-01T08:33:56.199Z,27.21
2019-06-01T08:36:25.720Z,27.34
2019-06-01T08:38:55.249Z,27.81
2019-06-01T08:41:25.539Z,28.09
2019-06-01T08:43:55.087Z,28.09
2019-06-01T08:46:25.563Z,27.47
2019-06-01T08:48:55.071Z,26.96
2019-06-01T08:51:26.375Z,26.75
2019-06-01T08:53:56.084Z,26.81
2019-06-01T08:56:26.104Z,26.79
2019-06-01T08:58:55.767Z,26.66
2019-06-01T09:01:26.439Z,26.52
2019-06-01T09:03:55.914Z,26.59
2019-06-01T09:06:26.437Z,26.64
2019-06-01T09:08:56.331Z,26.56
2019-06-01T09:11:26.981Z,26.60
2019-06-01T09:13:56.576Z,26.41
2019-06-01T09:16:27.683Z,26.46
2019-06-01T09:18:57.372Z,26.66
2019-06-01T09:21:27.483Z,26.48
2019-06-01T09:23:57.153Z,26.62
2019-06-01T09:26:27.751Z,26.77
2019-06-01T09:28:57.338Z,26.74
2019-06-01T09:31:28.243Z,26.85
2019-06-01T09:33:57.994Z,26.97
2019-06-01T09:36:28.338Z,26.91
2019-06-01T09:38:57.984Z,26.87
2019-06-01T09:41:28.320Z,26.79
2019-06-01T09:43:58.871Z,26.65
2019-06-01T09:46:28.887Z,26.96
2019-06-01T09:48:58.567Z,27.23
2019-06-01T09:51:29.366Z,27.22
2019-06-01T09:53:58.950Z,26.92
2019-06-01T09:56:29.727Z,26.83
2019-06-01T09:58:59.830Z,26.83
2019-06-01T10:01:30.054Z,26.58
2019-06-01T10:03:59.792Z,26.22
2019-06-01T10:06:30.387Z,25.90
2019-06-01T10:08:59.968Z,25.70
2019-06-01T10:11:29.899Z,25.37
2019-06-01T10:13:59.637Z,25.16
2019-06-01T10:16:30.460Z,25.19
2019-06-01T10:18:59.973Z,25.50
2019-06-01T10:21:29.815Z,25.99
2019-06-01T10:23:59.462Z,26.34
2019-06-01T10:26:29.028Z,26.43
2019-06-01T10:28:58.628Z,26.52
2019-06-01T10:31:28.168Z,26.76
2019-06-01T10:33:57.750Z,26.96
2019-06-01T10:36:27.359Z,27.02
2019-06-01T10:38:56.897Z,27.33
2019-06-01T10:41:26.398Z,27.81
2019-06-01T10:43:55.840Z,27.94
2019-06-01T10:46:25.417Z,28.64
2019-06-01T10:48:54.958Z,29.68
2019-06-01T10:51:24.497Z,30.48
2019-06-01T10:53:54.140Z,30.95
2019-06-01T10:56:23.689Z,30.51
2019-06-01T10:59:00.147Z,30.69
2019-06-01T11:01:24.334Z,30.65
2019-06-01T11:03:53.981Z,30.70
2019-06-01T11:06:36.645Z,30.16
2019-06-01T11:08:54.624Z,29.33
2019-06-01T11:11:24.058Z,29.22
2019-06-01T11:13:53.604Z,29.34
2019-06-01T11:16:23.066Z,29.55
2019-06-01T11:18:52.499Z,29.42
2019-06-01T11:21:22.034Z,29.04
2019-06-01T11:23:51.548Z,29.06
2019-06-01T11:26:21.077Z,28.55
2019-06-01T11:28:50.585Z,28.50
2019-06-01T11:31:20.096Z,28.29
2019-06-01T11:33:49.553Z,28.24
2019-06-01T11:36:19.155Z,28.26
2019-06-01T11:38:48.797Z,28.26
2019-06-01T11:41:18.806Z,28.37
2019-06-01T11:43:48.676Z,28.32
2019-06-01T11:46:18.165Z,28.70
2019-06-01T11:48:47.725Z,29.82
2019-06-01T11:51:17.242Z,31.19
2019-06-01T11:53:46.843Z,31.05
2019-06-01T11:56:16.379Z,30.69
2019-06-01T11:58:45.960Z,30.33
2019-06-01T12:01:15.505Z,29.28
2019-06-01T12:03:46.162Z,28.80
2019-06-01T12:06:15.683Z,28.49
2019-06-01T12:08:46.383Z,28.44
2019-06-01T12:11:16.079Z,28.32
2019-06-01T12:13:46.531Z,28.28
2019-06-01T12:16:16.259Z,28.02
2019-06-01T12:18:46.910Z,27.74
2019-06-01T12:21:16.380Z,27.28
2019-06-01T12:23:46.002Z,27.05
2019-06-01T12:26:15.505Z,26.95
2019-06-01T12:28:45.836Z,27.25
2019-06-01T12:31:15.493Z,27.70
2019-06-01T12:33:46.254Z,28.64
2019-06-01T12:36:16.037Z,30.07
2019-06-01T12:38:52.502Z,30.51
2019-06-01T12:41:22.380Z,31.26
2019-06-01T12:44:09.459Z,31.29
2019-06-01T12:46:39.796Z,31.35
2019-06-01T12:49:09.637Z,31.79
2019-06-01T12:51:40.495Z,32.40
2019-06-01T12:54:10.194Z,33.32
2019-06-01T12:56:40.710Z,33.89
2019-06-01T12:59:10.411Z,33.86
2019-06-01T13:01:40.986Z,33.40
2019-06-01T13:04:12.621Z,33.43
2019-06-01T13:06:42.674Z,33.73
2019-06-01T13:09:12.448Z,33.66
2019-06-01T13:11:43.102Z,34.30
2019-06-01T13:14:12.723Z,34.91
2019-06-01T13:16:47.390Z,35.70
2019-06-01T13:19:13.490Z,35.60
2019-06-01T13:21:43.380Z,36.46
2019-06-01T13:24:12.878Z,37.20
2019-06-01T13:26:43.613Z,37.40
2019-06-01T13:29:13.220Z,37.52
2019-06-01T13:31:44.042Z,36.69
2019-06-01T13:34:13.746Z,37.66
2019-06-01T13:36:44.493Z,37.72
2019-06-01T13:39:14.104Z,37.66
2019-06-01T13:41:44.949Z,37.55
2019-06-01T13:44:14.594Z,37.12
2019-06-01T13:46:45.199Z,36.93
2019-06-01T13:49:14.758Z,36.40
2019-06-01T13:51:45.897Z,35.18
2019-06-01T13:54:15.630Z,34.14
2019-06-01T13:56:45.109Z,32.75
2019-06-01T13:59:14.632Z,31.87
2019-06-01T14:01:45.009Z,31.49
2019-06-01T14:04:14.698Z,31.09
2019-06-01T14:06:45.126Z,30.60
2019-06-01T14:09:14.764Z,29.99
2019-06-01T14:11:45.272Z,29.28
2019-06-01T14:14:14.850Z,28.92
2019-06-01T14:16:45.452Z,28.52
2019-06-01T14:19:15.155Z,28.30
2019-06-01T14:21:45.703Z,28.08
2019-06-01T14:24:15.281Z,27.65
2019-06-01T14:26:46.029Z,27.32
2019-06-01T14:29:15.580Z,27.02
2019-06-01T14:31:46.461Z,26.80
2019-06-01T14:34:16.072Z,26.57
2019-06-01T14:36:46.408Z,26.41
2019-06-01T14:39:15.978Z,26.28
2019-06-01T14:41:46.734Z,26.15
2019-06-01T14:44:16.208Z,26.06
2019-06-01T14:46:55.013Z,26.03
2019-06-01T14:49:16.788Z,26.19
2019-06-01T14:51:47.464Z,26.11
2019-06-01T14:54:17.084Z,26.06
2019-06-01T14:56:47.545Z,25.93
2019-06-01T14:59:17.687Z,25.82
2019-06-01T15:01:48.191Z,25.76
2019-06-01T15:04:17.658Z,25.64
2019-06-01T15:06:48.177Z,25.58
2019-06-01T15:09:19.630Z,25.55
2019-06-01T15:11:49.347Z,25.48
2019-06-01T15:14:20.127Z,25.37
2019-06-01T15:16:49.699Z,25.32
2019-06-01T15:19:19.130Z,25.31
2019-06-01T15:21:49.799Z,25.23
2019-06-01T15:24:19.971Z,25.23
2019-06-01T15:26:50.451Z,25.25
2019-06-01T15:29:20.057Z,25.44
2019-06-01T15:31:50.995Z,25.69
2019-06-01T15:34:20.613Z,25.92
2019-06-01T15:36:51.433Z,26.16
2019-06-01T15:39:24.665Z,26.34
2019-06-01T15:41:53.039Z,26.43
2019-06-01T15:44:22.720Z,26.49
2019-06-01T15:46:53.531Z,26.47
2019-06-01T15:49:23.208Z,26.39
2019-06-01T15:51:53.659Z,26.15
2019-06-01T15:54:23.155Z,25.84
2019-06-01T15:56:52.595Z,25.72
2019-06-01T15:59:22.091Z,25.48
2019-06-01T16:01:52.901Z,25.33
2019-06-01T16:04:22.437Z,25.23
2019-06-01T16:06:53.003Z,25.18
2019-06-01T16:09:22.474Z,25.18
2019-06-01T16:11:53.369Z,25.10
2019-06-01T16:14:22.915Z,25.09
2019-06-01T16:16:53.710Z,24.94
2019-06-01T16:19:23.266Z,24.88
2019-06-01T16:21:53.707Z,24.92
2019-06-01T16:24:23.276Z,24.86
2019-06-01T16:26:52.783Z,24.76
2019-06-01T16:29:22.234Z,24.67
2019-06-01T16:31:51.674Z,24.56
2019-06-01T16:34:21.392Z,24.56
2019-06-01T16:36:51.047Z,24.59
2019-06-01T16:39:20.500Z,24.60
2019-06-01T16:41:50.040Z,24.59
2019-06-01T16:44:20.034Z,24.60
2019-06-01T16:46:49.638Z,24.54
2019-06-01T16:49:19.083Z,24.40
2019-06-01T16:51:53.151Z,24.30
2019-06-01T16:54:22.682Z,24.08
2019-06-01T16:56:52.153Z,23.88
2019-06-01T16:59:21.717Z,23.69
2019-06-01T17:01:51.223Z,23.60
2019-06-01T17:04:22.026Z,23.44
2019-06-01T17:06:51.484Z,23.27
2019-06-01T17:09:20.901Z,23.19
2019-06-01T17:11:50.403Z,23.15
2019-06-01T17:14:19.880Z,23.18
2019-06-01T17:16:49.339Z,23.15
2019-06-01T17:19:18.791Z,23.12
2019-06-01T17:21:48.236Z,23.08
2019-06-01T17:24:17.682Z,23.03
2019-06-01T17:26:47.121Z,22.99
2019-06-01T17:29:16.525Z,22.95
2019-06-01T17:31:54.335Z,22.83
2019-06-01T17:34:17.583Z,22.68
2019-06-01T17:36:47.045Z,22.56
2019-06-01T17:39:16.500Z,22.41
2019-06-01T17:41:45.950Z,22.30
2019-06-01T17:44:15.390Z,22.20
2019-06-01T17:46:53.378Z,22.07
2019-06-01T17:49:16.104Z,21.96
2019-06-01T17:51:45.550Z,21.86
2019-06-01T17:54:14.998Z,21.73
2019-06-01T17:56:44.512Z,21.61
2019-06-01T17:59:13.983Z,21.59
2019-06-01T18:01:43.465Z,21.62
2019-06-01T18:04:12.902Z,21.59
2019-06-01T18:06:42.444Z,21.51
2019-06-01T18:09:12.305Z,21.45
2019-06-01T18:11:41.714Z,21.36
2019-06-01T18:14:12.277Z,21.25
2019-06-01T18:16:41.798Z,21.18
2019-06-01T18:19:12.273Z,21.08
2019-06-01T18:21:41.982Z,20.97
2019-06-01T18:24:12.619Z,20.88
2019-06-01T18:26:42.164Z,20.77
2019-06-01T18:29:12.719Z,20.68
2019-06-01T18:31:42.295Z,20.60
2019-06-01T18:34:11.899Z,20.52
2019-06-01T18:36:41.351Z,20.43
2019-06-01T18:39:11.785Z,20.33
2019-06-01T18:41:41.717Z,20.20
2019-06-01T18:44:11.874Z,20.10
2019-06-01T18:46:41.483Z,20.08
2019-06-01T18:49:11.963Z,20.09
2019-06-01T18:51:41.474Z,20.17
2019-06-01T18:54:10.927Z,20.26
2019-06-01T18:56:40.395Z,20.33
2019-06-01T18:59:10.294Z,20.39
2019-06-01T19:01:39.769Z,20.38
2019-06-01T19:04:09.728Z,20.34
2019-06-01T19:06:39.376Z,20.25
2019-06-01T19:09:09.521Z,20.13
2019-06-01T19:11:38.933Z,20.01
2019-06-01T19:14:09.697Z,19.90
2019-06-01T19:16:39.211Z,19.78
2019-06-01T19:19:08.667Z,19.65
2019-06-01T19:21:38.103Z,19.57
2019-06-01T19:24:08.487Z,19.54
2019-06-01T19:26:39.160Z,19.58
2019-06-01T19:29:08.810Z,19.60
2019-06-01T19:31:38.521Z,19.61
2019-06-01T19:34:08.899Z,19.66
2019-06-01T19:36:38.848Z,19.72
2019-06-01T19:39:09.200Z,19.81
2019-06-01T19:41:44.580Z,19.89
2019-06-01T19:44:09.939Z,19.95
2019-06-01T19:46:39.601Z,20.00
2019-06-01T19:49:10.690Z,20.08
2019-06-01T19:51:40.544Z,20.14
2019-06-01T19:54:10.798Z,20.20
2019-06-01T19:56:40.252Z,20.20
2019-06-01T19:59:09.965Z,20.17
2019-06-01T20:01:39.633Z,20.14
2019-06-01T20:04:10.370Z,20.05
2019-06-01T20:06:39.910Z,19.97
2019-06-01T20:09:10.914Z,19.87
2019-06-01T20:11:40.641Z,19.75
2019-06-01T20:14:10.264Z,19.61
2019-06-01T20:16:39.755Z,19.48
2019-06-01T20:19:09.395Z,19.42
2019-06-01T20:21:38.841Z,19.36
2019-06-01T20:24:08.452Z,19.30
2019-06-01T20:26:44.609Z,19.25
2019-06-01T20:29:09.458Z,19.27
2019-06-01T20:31:39.004Z,19.34
2019-06-01T20:34:08.575Z,19.39
2019-06-01T20:36:38.247Z,19.44
2019-06-01T20:39:08.869Z,19.51
2019-06-01T20:41:38.511Z,19.56
2019-06-01T20:44:07.990Z,19.56
2019-06-01T20:46:37.513Z,19.53
2019-06-01T20:49:07.079Z,19.49
2019-06-01T20:51:36.643Z,19.41
2019-06-01T20:54:06.115Z,19.38
2019-06-01T20:56:35.559Z,19.39
2019-06-01T20:59:05.072Z,19.43
2019-06-01T21:01:34.627Z,19.45
2019-06-01T21:04:04.066Z,19.49
2019-06-01T21:06:33.684Z,19.53
2019-06-01T21:09:05.012Z,19.56
2019-06-01T21:11:34.595Z,19.58
2019-06-01T21:14:04.205Z,19.65
2019-06-01T21:16:33.818Z,19.68
2019-06-01T21:19:03.355Z,19.73
2019-06-01T21:21:32.854Z,19.77
2019-06-01T21:24:02.473Z,19.83
2019-06-01T21:26:31.912Z,19.87
2019-06-01T21:29:01.482Z,19.92
2019-06-01T21:31:31.021Z,19.94
2019-06-01T21:34:00.585Z,19.97
2019-06-01T21:36:30.125Z,20.02
2019-06-01T21:38:59.812Z,20.05
2019-06-01T21:41:29.382Z,20.09
2019-06-01T21:43:58.817Z,20.11
2019-06-01T21:46:28.275Z,20.14
2019-06-01T21:48:57.883Z,20.17
2019-06-01T21:51:27.401Z,20.18
2019-06-01T21:53:56.845Z,20.20
2019-06-01T21:56:26.686Z,20.19
2019-06-01T21:58:56.220Z,20.17
2019-06-01T22:01:26.999Z,20.17
2019-06-01T22:03:56.480Z,20.17
2019-06-01T22:06:27.472Z,20.18
2019-06-01T22:08:57.358Z,20.18
2019-06-01T22:11:27.528Z,20.14
2019-06-01T22:13:57.049Z,20.11
2019-06-01T22:16:27.835Z,20.06
2019-06-01T22:18:57.620Z,20.01
2019-06-01T22:21:27.936Z,19.99
2019-06-01T22:23:57.670Z,19.96
2019-06-01T22:26:28.343Z,19.92
2019-06-01T22:28:58.110Z,19.93
2019-06-01T22:31:28.688Z,19.93
2019-06-01T22:33:58.247Z,19.96
2019-06-01T22:36:27.887Z,20.01
2019-06-01T22:38:57.459Z,20.04
2019-06-01T22:41:28.041Z,20.10
2019-06-01T22:43:57.623Z,20.12
2019-06-01T22:46:28.426Z,20.17
2019-06-01T22:48:58.389Z,20.15
2019-06-01T22:51:29.368Z,20.09
2019-06-01T22:53:59.236Z,20.08
2019-06-01T22:56:29.440Z,20.08
2019-06-01T22:58:58.995Z,20.10
2019-06-01T23:01:28.833Z,20.09
2019-06-01T23:03:58.287Z,20.10
2019-06-01T23:06:29.102Z,20.11
2019-06-01T23:08:58.765Z,20.12
2019-06-01T23:11:29.485Z,20.10
2019-06-01T23:13:59.138Z,20.06
2019-06-01T23:16:29.745Z,20.03
2019-06-01T23:18:59.337Z,20.02
2019-06-01T23:21:29.974Z,20.00
2019-06-01T23:23:59.667Z,19.98
2019-06-01T23:26:30.269Z,19.94
2019-06-01T23:28:59.898Z,19.89
2019-06-01T23:31:30.446Z,19.86
2019-06-01T23:34:00.191Z,19.82
2019-06-01T23:36:30.669Z,19.78
2019-06-01T23:39:00.326Z,19.72
2019-06-01T23:41:30.844Z,19.66
2019-06-01T23:44:11.154Z,19.60
2019-06-01T23:46:33.015Z,19.57
2019-06-01T23:49:02.902Z,19.53
2019-06-01T23:51:33.908Z,19.47
2019-06-01T23:54:03.636Z,19.43
2019-06-01T23:56:34.682Z,19.36
2019-06-01T23:59:04.193Z,19.30
